Time;durP1;ratioP1;P1;durP2;ratioP2;P2;SDS_P1;SDS_P2;PMS_P1;PMS_P2;Temp;Humidity;BMP_temperature;BMP_pressure;BME280_temperature;BME280_humidity;BME280_pressure;Samples;Min_cycle;Max_cycle;Signal;HPM_P1;HPM_P2
2021/11/01 00:00:17;;;;;;;1.92;1.83;;;11.90;99.10;;;;;;5015477;28;20178;-83
2021/11/01 00:02:44;;;;;;;2.83;2.58;;;12.00;99.10;;;;;;5014787;28;20178;-82
2021/11/01 00:05:11;;;;;;;4.90;2.38;;;12.00;99.10;;;;;;5014211;28;20181;-82
2021/11/01 00:07:37;;;;;;;2.08;1.55;;;12.00;99.10;;;;;;5014585;28;20214;-81
2021/11/01 00:10:04;;;;;;;4.07;2.65;;;12.10;99.10;;;;;;5014811;28;20182;-82
2021/11/01 00:12:30;;;;;;;9.13;3.88;;;12.10;99.10;;;;;;5015061;28;20194;-82
2021/11/01 00:14:58;;;;;;;3.03;2.10;;;12.10;99.10;;;;;;5014454;28;20646;-82
2021/11/01 00:17:25;;;;;;;6.28;3.55;;;12.00;99.10;;;;;;5014873;28;20702;-82
2021/11/01 00:19:51;;;;;;;3.88;2.63;;;12.10;99.10;;;;;;5014662;28;20201;-82
2021/11/01 00:22:18;;;;;;;3.28;1.95;;;12.10;99.10;;;;;;5014427;28;20224;-82
2021/11/01 00:24:43;;;;;;;3.72;2.65;;;12.10;99.10;;;;;;5014717;28;20182;-82
2021/11/01 00:27:09;;;;;;;3.90;2.53;;;12.20;99.10;;;;;;5014176;28;20279;-82
2021/11/01 00:29:35;;;;;;;4.87;3.00;;;12.20;99.10;;;;;;5014775;28;20661;-82
2021/11/01 00:32:01;;;;;;;4.07;2.55;;;12.30;99.10;;;;;;5014210;28;20945;-82
2021/11/01 00:34:27;;;;;;;4.13;2.92;;;12.20;99.10;;;;;;5013838;28;20198;-82
2021/11/01 00:36:53;;;;;;;7.13;3.27;;;12.20;99.10;;;;;;5014337;28;20742;-82
2021/11/01 00:39:20;;;;;;;6.88;2.92;;;12.30;98.90;;;;;;5014525;28;20171;-82
2021/11/01 00:41:46;;;;;;;5.50;2.97;;;12.40;98.70;;;;;;5013872;28;20173;-82
2021/11/01 00:44:12;;;;;;;7.43;3.37;;;12.40;98.40;;;;;;5014051;28;20179;-81
2021/11/01 00:46:38;;;;;;;8.40;2.27;;;12.40;98.40;;;;;;5014540;28;20417;-82
2021/11/01 00:49:05;;;;;;;4.38;2.70;;;12.40;98.20;;;;;;5015132;28;20417;-82
2021/11/01 00:51:31;;;;;;;5.20;2.25;;;12.50;97.90;;;;;;5014214;28;20178;-82
2021/11/01 00:53:56;;;;;;;6.03;3.28;;;12.50;98.00;;;;;;5014503;28;20209;-82
2021/11/01 00:56:22;;;;;;;2.73;2.10;;;12.50;98.10;;;;;;5014203;28;20555;-81
2021/11/01 00:58:48;;;;;;;1.77;1.63;;;12.40;98.00;;;;;;5014633;28;20429;-82
2021/11/01 01:01:15;;;;;;;6.47;3.20;;;12.40;98.20;;;;;;5014499;28;20181;-81
2021/11/01 01:03:42;;;;;;;2.35;1.98;;;12.40;98.20;;;;;;5014472;28;20257;-81
2021/11/01 01:06:08;;;;;;;6.75;2.88;;;12.40;98.30;;;;;;5014378;28;20174;-82
2021/11/01 01:08:33;;;;;;;6.87;2.43;;;12.40;98.20;;;;;;5014226;28;20217;-82
2021/11/01 01:10:59;;;;;;;9.80;2.97;;;12.40;98.30;;;;;;5014011;28;20202;-82
2021/11/01 01:13:29;;;;;;;2.15;1.90;;;12.30;98.40;;;;;;5014376;28;20210;-82
2021/11/01 01:18:38;;;;;;;5.15;2.75;;;12.40;98.20;;;;;;5015230;28;20225;-82
2021/11/01 01:23:52;;;;;;;3.13;2.65;;;12.50;97.70;;;;;;5032200;23;20205;-80
2021/11/01 01:26:18;;;;;;;8.02;2.85;;;12.50;97.50;;;;;;5017528;28;20191;-81
2021/11/01 01:28:44;;;;;;;8.10;3.15;;;12.50;97.80;;;;;;5018429;28;20194;-81
2021/11/01 01:31:11;;;;;;;2.33;1.92;;;12.40;98.00;;;;;;5018516;28;20661;-80
2021/11/01 01:33:37;;;;;;;3.58;2.13;;;12.40;98.00;;;;;;5017933;28;20214;-80
2021/11/01 01:36:04;;;;;;;4.07;2.72;;;12.40;98.30;;;;;;5018474;28;20170;-80
2021/11/01 01:38:30;;;;;;;2.03;1.88;;;12.40;98.20;;;;;;5017844;28;20206;-80
2021/11/01 01:40:56;;;;;;;6.93;2.58;;;12.50;98.10;;;;;;5017711;28;20175;-79
2021/11/01 01:43:23;;;;;;;2.77;2.50;;;12.50;98.00;;;;;;5017040;28;20182;-80
2021/11/01 01:45:49;;;;;;;4.00;2.03;;;12.60;98.00;;;;;;5018346;28;20424;-80
2021/11/01 01:48:15;;;;;;;7.90;3.25;;;12.60;97.90;;;;;;5018392;28;20226;-80
2021/11/01 01:50:43;;;;;;;4.63;2.15;;;12.70;97.80;;;;;;5019330;28;20536;-80
2021/11/01 01:53:09;;;;;;;2.20;1.92;;;12.80;97.40;;;;;;5019672;28;20202;-80
2021/11/01 01:55:35;;;;;;;2.67;1.87;;;12.80;97.30;;;;;;5018821;28;20257;-80
2021/11/01 01:58:01;;;;;;;2.30;2.00;;;12.90;96.90;;;;;;5018970;28;20437;-80
2021/11/01 02:03:12;;;;;;;3.35;2.30;;;12.90;96.60;;;;;;5020537;28;20409;-80
2021/11/01 02:05:45;;;;;;;2.47;1.80;;;12.90;96.50;;;;;;5018792;28;20179;-80
2021/11/01 02:08:14;;;;;;;4.10;2.05;;;12.90;96.60;;;;;;5019291;28;20269;-81
2021/11/01 02:10:53;;;;;;;1.90;1.80;;;13.00;96.70;;;;;;5021326;28;20171;-80
2021/11/01 02:13:24;;;;;;;1.85;1.30;;;13.00;97.60;;;;;;5019208;28;20220;-79
2021/11/01 02:15:53;;;;;;;2.15;1.25;;;13.10;98.60;;;;;;5018039;28;20623;-81
2021/11/01 02:18:21;;;;;;;2.05;0.88;;;13.20;99.10;;;;;;5018637;28;20206;-81
2021/11/01 02:20:53;;;;;;;0.40;0.40;;;13.40;99.10;;;;;;5018486;28;20182;-83
2021/11/01 02:23:27;;;;;;;0.98;0.50;;;13.60;98.40;;;;;;5019080;28;20182;-81
2021/11/01 02:25:57;;;;;;;0.30;0.30;;;13.70;96.60;;;;;;5018481;28;20186;-81
2021/11/01 02:28:27;;;;;;;1.30;0.63;;;13.90;94.80;;;;;;5018311;28;20206;-81
2021/11/01 02:30:54;;;;;;;0.60;0.50;;;13.90;93.50;;;;;;5019369;28;20163;-82
2021/11/01 02:33:23;;;;;;;0.63;0.50;;;13.90;93.60;;;;;;5018157;28;20290;-81
2021/11/01 02:35:51;;;;;;;0.40;0.40;;;13.90;93.60;;;;;;5018112;28;20175;-80
2021/11/01 02:38:20;;;;;;;0.40;0.40;;;13.80;94.00;;;;;;5018014;28;20201;-82
2021/11/01 02:40:46;;;;;;;0.50;0.50;;;13.80;94.60;;;;;;5018315;28;20174;-82
2021/11/01 02:43:14;;;;;;;0.50;0.40;;;13.80;95.00;;;;;;5033920;28;20194;-81
2021/11/01 02:45:39;;;;;;;0.60;0.50;;;13.80;95.00;;;;;;5017222;28;20269;-81
2021/11/01 02:48:06;;;;;;;0.40;0.40;;;13.70;95.20;;;;;;5018510;28;20202;-81
2021/11/01 02:50:33;;;;;;;1.25;0.80;;;13.60;95.50;;;;;;5019048;28;20417;-80
2021/11/01 02:52:59;;;;;;;0.40;0.40;;;13.60;96.20;;;;;;5017896;28;20293;-81
2021/11/01 02:55:25;;;;;;;0.60;0.60;;;13.50;96.50;;;;;;5018933;28;20642;-81
2021/11/01 02:57:52;;;;;;;0.40;0.40;;;13.40;96.80;;;;;;5021508;28;20614;-81
2021/11/01 03:00:20;;;;;;;0.40;0.40;;;13.40;96.90;;;;;;5022002;28;20665;-80
2021/11/01 03:02:49;;;;;;;0.40;0.40;;;13.40;97.20;;;;;;5021950;28;20202;-81
2021/11/01 03:05:17;;;;;;;0.50;0.40;;;13.40;97.60;;;;;;5021160;28;20665;-81
2021/11/01 03:07:46;;;;;;;0.80;0.70;;;13.40;96.50;;;;;;5023485;28;20191;-81
2021/11/01 03:10:12;;;;;;;1.17;0.80;;;13.40;95.20;;;;;;5022722;28;20170;-80
2021/11/01 03:12:41;;;;;;;0.40;0.40;;;13.30;95.80;;;;;;5021956;28;20197;-81
2021/11/01 03:15:10;;;;;;;0.40;0.40;;;13.20;95.60;;;;;;5023255;28;20186;-81
2021/11/01 03:17:43;;;;;;;0.40;0.40;;;13.10;95.40;;;;;;5024119;28;20190;-81
2021/11/01 03:20:17;;;;;;;0.60;0.50;;;13.00;95.60;;;;;;5022422;28;20209;-81
2021/11/01 03:22:48;;;;;;;1.25;0.88;;;12.90;95.60;;;;;;5023150;28;20174;-81
2021/11/01 03:25:29;;;;;;;0.70;0.52;;;12.90;96.20;;;;;;5020938;28;20194;-82
2021/11/01 03:27:57;;;;;;;0.40;0.38;;;12.90;96.20;;;;;;5006817;28;20686;-80
2021/11/01 03:30:24;;;;;;;0.45;0.40;;;12.80;97.20;;;;;;5020020;28;20175;-81
2021/11/01 03:32:51;;;;;;;0.40;0.40;;;12.80;97.70;;;;;;5020381;28;20201;-81
2021/11/01 03:35:19;;;;;;;0.40;0.40;;;12.70;98.20;;;;;;5021392;28;20185;-82
2021/11/01 03:37:47;;;;;;;1.52;0.70;;;12.70;98.70;;;;;;5021939;28;20221;-79
2021/11/01 03:40:18;;;;;;;0.50;0.40;;;12.70;99.10;;;;;;5021528;28;20703;-81
2021/11/01 03:42:45;;;;;;;0.40;0.40;;;12.70;99.10;;;;;;5021414;28;20242;-81
2021/11/01 03:45:13;;;;;;;0.50;0.40;;;12.60;99.10;;;;;;5021816;28;20182;-81
2021/11/01 03:47:42;;;;;;;0.55;0.50;;;12.60;99.10;;;;;;5021833;28;20618;-81
2021/11/01 03:50:20;;;;;;;0.45;0.38;;;12.60;99.10;;;;;;5022043;28;20174;-80
2021/11/01 03:52:48;;;;;;;0.45;0.40;;;12.60;99.10;;;;;;5021442;28;20545;-81
2021/11/01 03:55:14;;;;;;;0.60;0.60;;;12.50;99.10;;;;;;5021318;28;20189;-81
2021/11/01 03:57:40;;;;;;;0.40;0.40;;;12.50;99.10;;;;;;5021297;28;20225;-81
2021/11/01 04:00:07;;;;;;;0.40;0.40;;;12.40;99.10;;;;;;5022317;28;20468;-80
2021/11/01 04:02:33;;;;;;;0.40;0.40;;;12.50;99.10;;;;;;5021934;28;20242;-80
2021/11/01 04:05:01;;;;;;;0.40;0.40;;;12.50;99.10;;;;;;5021491;28;20174;-81
2021/11/01 04:07:27;;;;;;;2.08;0.77;;;12.50;99.10;;;;;;5021891;28;20226;-81
2021/11/01 04:09:54;;;;;;;0.50;0.40;;;12.50;99.10;;;;;;5021838;28;20171;-81
2021/11/01 04:12:20;;;;;;;0.40;0.40;;;12.60;99.10;;;;;;5021595;28;20171;-81
2021/11/01 04:14:53;;;;;;;0.50;0.50;;;12.60;99.10;;;;;;5023067;28;20217;-82
2021/11/01 04:22:43;;;;;;;4.82;1.77;;;12.70;99.10;;;;;;5025338;28;20159;-81
2021/11/01 04:25:09;;;;;;;1.55;0.80;;;12.60;99.10;;;;;;5021664;28;20194;-80
2021/11/01 04:27:36;;;;;;;1.60;0.85;;;12.60;99.10;;;;;;5021680;28;20281;-79
2021/11/01 04:30:04;;;;;;;0.45;0.40;;;12.50;99.10;;;;;;5020929;28;20691;-80
2021/11/01 04:32:38;;;;;;;0.60;0.50;;;12.60;99.10;;;;;;5024372;28;20646;-81
2021/11/01 04:35:18;;;;;;;0.47;0.40;;;12.60;99.10;;;;;;5023287;28;20174;-82
2021/11/01 04:37:47;;;;;;;2.65;0.68;;;12.60;99.10;;;;;;5023119;28;20186;-81
2021/11/01 04:40:37;;;;;;;0.50;0.40;;;12.60;99.10;;;;;;5026427;28;20563;-80
2021/11/01 04:54:02;;;;;;;0.98;0.60;;;12.50;99.10;;;;;;5026206;28;20205;-81
2021/11/01 04:56:28;;;;;;;0.40;0.40;;;12.50;99.10;;;;;;5026411;28;20633;-82
2021/11/01 04:58:56;;;;;;;0.63;0.60;;;12.50;99.10;;;;;;5025042;28;20187;-81
2021/11/01 05:01:30;;;;;;;0.60;0.50;;;12.50;99.10;;;;;;5025574;28;20417;-81
2021/11/01 05:04:00;;;;;;;1.13;0.68;;;12.50;99.10;;;;;;5026120;28;20170;-80
2021/11/01 05:06:26;;;;;;;0.77;0.73;;;12.40;99.10;;;;;;5024831;28;20182;-81
2021/11/01 05:22:52;;;;;;;7.13;0.63;;;12.40;99.10;;;;;;5028928;23;20284;-80
2021/11/01 05:25:32;;;;;;;1.50;0.60;;;12.40;99.10;;;;;;5018059;28;20178;-79
2021/11/01 05:28:13;;;;;;;4.85;1.02;;;12.30;99.10;;;;;;5021177;28;20284;-81
2021/11/01 05:34:14;;;;;;;1.00;0.90;;;12.30;99.10;;;;;;5024381;28;20249;-81
2021/11/01 05:36:40;;;;;;;0.93;0.50;;;12.20;99.10;;;;;;5026175;28;20181;-81
2021/11/01 05:39:06;;;;;;;1.23;0.88;;;12.30;99.10;;;;;;5020266;28;20174;-80
2021/11/01 05:41:33;;;;;;;1.58;0.60;;;12.30;99.10;;;;;;5013394;28;20262;-80
2021/11/01 05:43:59;;;;;;;2.05;0.80;;;12.20;99.10;;;;;;5011658;28;20205;-79
2021/11/01 05:46:32;;;;;;;1.10;0.93;;;12.20;99.10;;;;;;5011422;28;20248;-78
2021/11/01 05:48:59;;;;;;;5.55;1.52;;;12.30;99.10;;;;;;5013112;28;20181;-80
2021/11/01 05:51:25;;;;;;;4.68;0.98;;;12.30;99.10;;;;;;5018657;28;20183;-80
2021/11/01 05:53:55;;;;;;;2.25;1.75;;;12.30;99.10;;;;;;5014799;28;20292;-80
2021/11/01 05:56:35;;;;;;;0.60;0.50;;;12.30;99.10;;;;;;5024099;28;20193;-80
2021/11/01 06:04:53;;;;;;;0.60;0.50;;;12.30;99.10;;;;;;4992115;28;20544;-78
2021/11/01 06:07:31;;;;;;;0.82;0.60;;;12.30;99.10;;;;;;5014394;28;20549;-80
2021/11/01 06:15:14;;;;;;;1.15;0.60;;;12.30;99.10;;;;;;5013583;28;20173;-79
2021/11/01 06:17:40;;;;;;;0.40;0.40;;;12.30;99.10;;;;;;5011389;28;20693;-79
2021/11/01 06:20:06;;;;;;;0.57;0.47;;;12.30;99.10;;;;;;5012417;28;20258;-79
2021/11/01 06:22:32;;;;;;;0.65;0.55;;;12.30;99.10;;;;;;5011981;28;20598;-79
2021/11/01 06:25:09;;;;;;;1.95;0.55;;;12.30;99.10;;;;;;5012043;28;20221;-79
2021/11/01 06:27:36;;;;;;;3.33;1.60;;;12.30;99.10;;;;;;5012628;28;20194;-79
2021/11/01 06:30:11;;;;;;;0.98;0.88;;;12.30;99.10;;;;;;5013793;28;20204;-80
2021/11/01 06:32:57;;;;;;;1.17;0.68;;;12.20;99.10;;;;;;5018094;28;20181;-79
2021/11/01 06:41:03;;;;;;;0.82;0.77;;;12.20;99.10;;;;;;5020004;28;20530;-81
2021/11/01 06:54:34;;;;;;;1.20;0.50;;;12.10;99.10;;;;;;5020549;28;20324;-80
2021/11/01 06:56:58;;;;;;;0.80;0.70;;;12.00;99.10;;;;;;5022345;28;20174;-81
2021/11/01 07:15:30;;;;;;;1.35;0.75;;;12.00;99.10;;;;;;5016178;28;20178;-79
2021/11/01 07:18:24;;;;;;;4.28;1.40;;;11.90;99.10;;;;;;5016449;28;20205;-79
2021/11/01 09:27:07;;;;;;;0.85;0.75;;;11.60;99.10;;;;;;5027227;28;20238;-81
2021/11/01 09:38:03;;;;;;;0.85;0.50;;;11.70;99.10;;;;;;5025581;28;20237;-80
2021/11/01 09:43:13;;;;;;;0.60;0.50;;;11.80;99.10;;;;;;5025628;28;20185;-79
2021/11/01 09:45:40;;;;;;;0.40;0.40;;;11.80;99.10;;;;;;5024918;28;20178;-80
2021/11/01 09:48:07;;;;;;;0.60;0.50;;;11.70;99.10;;;;;;5027444;28;20202;-81
2021/11/01 09:50:35;;;;;;;0.40;0.40;;;11.80;99.10;;;;;;5026109;28;20173;-79
2021/11/01 09:53:11;;;;;;;7.15;1.13;;;11.90;99.10;;;;;;5025746;28;20209;-79
2021/11/01 10:00:53;;;;;;;0.40;0.40;;;11.90;99.10;;;;;;5025894;28;20176;-80
2021/11/01 10:03:30;;;;;;;0.80;0.63;;;11.90;99.10;;;;;;5026537;28;20171;-79
2021/11/01 10:05:58;;;;;;;0.60;0.50;;;11.80;99.10;;;;;;5025500;28;20212;-79
2021/11/01 10:08:25;;;;;;;0.93;0.60;;;11.90;99.10;;;;;;5029159;28;20218;-80
2021/11/01 10:10:51;;;;;;;1.75;0.60;;;11.90;99.10;;;;;;5028685;28;20174;-79
2021/11/01 10:13:17;;;;;;;0.60;0.50;;;11.90;99.10;;;;;;5029119;28;20190;-79
2021/11/01 10:18:29;;;;;;;1.30;0.93;;;12.00;99.10;;;;;;5026136;28;20467;-79
2021/11/01 10:21:00;;;;;;;0.50;0.40;;;11.90;99.10;;;;;;5024220;28;20186;-80
2021/11/01 10:23:34;;;;;;;0.60;0.50;;;12.00;99.10;;;;;;5023808;28;20201;-80
2021/11/01 10:26:18;;;;;;;0.75;0.65;;;11.90;99.10;;;;;;5025739;28;20205;-79
2021/11/01 10:28:52;;;;;;;0.60;0.52;;;11.80;99.10;;;;;;5025359;28;20244;-80
2021/11/01 10:31:25;;;;;;;0.50;0.40;;;11.80;99.10;;;;;;5024412;28;20197;-82
2021/11/01 10:34:06;;;;;;;0.50;0.40;;;11.90;99.10;;;;;;5026027;28;20190;-82
2021/11/01 10:36:35;;;;;;;1.30;0.93;;;11.80;99.10;;;;;;5025388;28;20597;-81
2021/11/01 10:39:07;;;;;;;0.50;0.40;;;11.90;99.10;;;;;;5024084;28;20175;-81
2021/11/01 10:41:56;;;;;;;0.60;0.50;;;11.90;99.10;;;;;;5026647;28;20162;-81
2021/11/01 10:58:24;;;;;;;0.85;0.63;;;11.90;99.10;;;;;;5024919;28;20278;-81
2021/11/01 11:14:45;;;;;;;1.70;0.70;;;12.00;99.10;;;;;;5015852;28;20205;-80
2021/11/01 11:23:01;;;;;;;0.90;0.80;;;12.10;99.10;;;;;;4990462;28;20667;-80
2021/11/01 11:31:01;;;;;;;0.90;0.88;;;12.10;99.10;;;;;;5024891;28;20204;-80
2021/11/01 11:50:32;;;;;;;0.70;0.60;;;12.30;99.10;;;;;;5014956;28;20169;-79
2021/11/01 11:53:18;;;;;;;0.60;0.50;;;12.30;99.10;;;;;;5013407;28;20209;-79
2021/11/01 11:55:46;;;;;;;1.85;0.80;;;12.30;99.10;;;;;;5013438;28;20185;-80
2021/11/01 11:58:14;;;;;;;1.13;1.00;;;12.30;99.10;;;;;;5013086;28;20194;-79
2021/11/01 12:00:42;;;;;;;0.95;0.82;;;12.30;99.10;;;;;;5013209;28;20221;-79
2021/11/01 12:03:19;;;;;;;0.82;0.70;;;12.30;99.10;;;;;;5012994;28;20193;-79
2021/11/01 12:05:54;;;;;;;0.63;0.57;;;12.30;99.10;;;;;;5013390;28;20178;-79
2021/11/01 12:08:42;;;;;;;0.70;0.60;;;12.30;99.10;;;;;;5012945;28;20284;-79
2021/11/01 12:14:11;;;;;;;0.80;0.70;;;12.20;99.10;;;;;;5014258;28;20201;-79
2021/11/01 12:19:11;;;;;;;3.25;1.45;;;12.30;99.10;;;;;;5014596;28;20746;-79
2021/11/01 12:21:40;;;;;;;1.83;1.17;;;12.30;99.10;;;;;;5013223;28;20178;-79
2021/11/01 12:24:10;;;;;;;9.30;3.30;;;12.40;99.10;;;;;;5013101;28;20191;-79
2021/11/01 12:26:39;;;;;;;0.75;0.70;;;12.40;99.10;;;;;;5013007;28;20250;-80
2021/11/01 12:29:09;;;;;;;1.70;1.58;;;12.40;99.10;;;;;;5012790;28;20586;-79
2021/11/01 12:31:36;;;;;;;1.70;1.10;;;12.40;99.10;;;;;;5013199;28;20178;-79
2021/11/01 12:39:23;;;;;;;0.90;0.80;;;12.40;99.10;;;;;;5014045;28;20467;-79
2021/11/01 12:58:53;;;;;;;1.30;0.80;;;12.10;99.10;;;;;;5014252;28;20240;-80
2021/11/01 13:01:21;;;;;;;1.67;1.00;;;12.10;99.10;;;;;;5013840;28;20166;-80
2021/11/01 13:04:10;;;;;;;4.00;1.27;;;12.10;99.10;;;;;;5012289;28;20177;-80
2021/11/01 13:09:13;;;;;;;0.80;0.70;;;12.10;99.10;;;;;;5013696;28;20232;-80
2021/11/01 13:11:56;;;;;;;1.35;1.25;;;12.10;99.10;;;;;;5012433;28;20201;-80
2021/11/01 13:19:51;;;;;;;1.67;1.38;;;12.20;99.10;;;;;;4992663;28;20178;-79
2021/11/01 13:22:30;;;;;;;0.77;0.70;;;12.20;99.10;;;;;;5012584;28;20178;-82
2021/11/01 13:38:02;;;;;;;3.33;1.00;;;12.30;99.10;;;;;;5014702;28;20194;-79
2021/11/01 13:40:37;;;;;;;0.98;0.88;;;12.30;99.10;;;;;;5013289;28;20224;-79
2021/11/01 13:43:03;;;;;;;1.38;1.02;;;12.30;99.10;;;;;;5015249;28;20166;-78
2021/11/01 13:45:29;;;;;;;1.13;1.02;;;12.40;99.10;;;;;;5014835;28;20178;-79
2021/11/01 13:48:00;;;;;;;3.03;1.20;;;12.40;99.10;;;;;;5014285;28;20258;-79
2021/11/01 13:50:38;;;;;;;3.50;0.98;;;12.40;99.10;;;;;;5014353;28;20185;-79
2021/11/01 13:53:19;;;;;;;2.03;0.85;;;12.40;99.10;;;;;;5014636;28;20201;-79
2021/11/01 14:35:14;;;;;;;1.33;0.83;;;12.50;99.10;;;;;;5015718;28;20190;-79
2021/11/01 15:03:23;;;;;;;2.08;1.50;;;12.40;99.10;;;;;;5019918;28;20159;-79
2021/11/01 15:10:57;;;;;;;0.95;0.85;;;12.30;99.10;;;;;;5019052;28;20546;-79
2021/11/01 15:21:00;;;;;;;1.10;0.70;;;12.50;99.10;;;;;;5018959;28;20163;-79
2021/11/01 15:24:14;;;;;;;4.05;1.00;;;12.50;99.10;;;;;;5016841;28;20257;-79
2021/11/01 15:29:33;;;;;;;0.70;0.60;;;12.60;99.10;;;;;;4990918;28;20465;-79
2021/11/01 15:40:36;;;;;;;1.13;0.60;;;12.40;97.70;;;;;;5018473;28;20597;-79
2021/11/01 16:18:37;;;;;;;1.45;0.60;;;11.90;98.10;;;;;;5017709;28;20208;-78
2021/11/01 16:21:04;;;;;;;1.05;1.00;;;11.90;97.90;;;;;;5016830;28;20639;-80
2021/11/01 16:23:38;;;;;;;3.92;1.27;;;12.00;97.60;;;;;;5016095;28;20178;-80
2021/11/01 16:26:17;;;;;;;0.80;0.70;;;12.00;97.50;;;;;;5016482;28;20554;-79
2021/11/01 16:28:43;;;;;;;2.60;0.77;;;12.00;97.60;;;;;;5016613;28;20198;-80
2021/11/01 16:31:32;;;;;;;0.77;0.70;;;11.90;97.90;;;;;;5016352;28;20175;-79
2021/11/01 16:34:13;;;;;;;1.02;0.90;;;11.90;98.40;;;;;;5016604;28;20225;-81
2021/11/01 16:39:06;;;;;;;4.30;1.35;;;11.90;98.10;;;;;;5020517;28;20163;-80
2021/11/01 16:41:34;;;;;;;5.47;2.15;;;11.80;98.40;;;;;;5017389;28;20265;-78
2021/11/01 16:44:07;;;;;;;2.17;1.23;;;11.80;98.30;;;;;;5016464;28;20269;-80
2021/11/01 16:46:33;;;;;;;6.75;2.42;;;11.90;98.30;;;;;;5015677;28;20167;-80
2021/11/01 16:49:01;;;;;;;1.23;1.13;;;11.90;98.10;;;;;;5015707;28;20261;-81
2021/11/01 16:51:27;;;;;;;4.20;2.28;;;11.90;98.10;;;;;;5015502;28;20174;-80
2021/11/01 16:53:53;;;;;;;7.68;2.60;;;12.00;97.80;;;;;;5014559;28;20198;-79
2021/11/01 16:59:15;;;;;;;7.50;2.17;;;12.10;98.20;;;;;;5017248;28;20178;-80
2021/11/01 17:01:51;;;;;;;8.65;2.60;;;12.10;97.80;;;;;;5015579;28;20265;-80
2021/11/01 17:04:19;;;;;;;2.67;1.80;;;12.10;98.00;;;;;;5015315;28;20182;-79
2021/11/01 17:07:05;;;;;;;2.55;2.33;;;12.10;97.70;;;;;;5015392;28;20178;-80
2021/11/01 17:23:19;;;;;;;1.50;1.40;;;12.10;98.00;;;;;;5017908;28;20250;-80
2021/11/01 17:25:59;;;;;;;1.05;0.95;;;12.10;98.00;;;;;;5015728;28;20197;-80
2021/11/01 17:36:54;;;;;;;3.85;1.38;;;11.90;98.70;;;;;;5017268;28;20695;-80
2021/11/01 18:40:39;;;;;;;4.45;2.70;;;10.90;99.10;;;;;;5019751;28;20524;-81
2021/11/01 18:43:19;;;;;;;4.70;3.20;;;10.90;99.10;;;;;;5017933;28;20177;-81
2021/11/01 18:51:44;;;;;;;1.40;1.23;;;10.80;99.10;;;;;;5017717;28;20198;-81
2021/11/01 18:54:21;;;;;;;1.70;1.27;;;10.80;99.10;;;;;;5018380;28;20576;-80
2021/11/01 18:56:49;;;;;;;1.00;0.90;;;10.70;99.10;;;;;;5017690;28;20174;-82
2021/11/01 18:59:16;;;;;;;2.75;1.23;;;10.80;99.10;;;;;;5017784;28;20189;-82
2021/11/01 19:01:48;;;;;;;0.93;0.82;;;10.80;99.10;;;;;;5017234;28;20178;-82
2021/11/01 19:04:18;;;;;;;2.55;0.98;;;10.70;99.10;;;;;;5017514;28;20181;-82
2021/11/01 19:09:42;;;;;;;1.67;1.42;;;10.70;99.10;;;;;;5018821;28;20178;-82
2021/11/01 20:05:12;;;;;;;1.13;0.80;;;9.90;99.10;;;;;;5040284;28;20177;-81
2021/11/01 20:13:24;;;;;;;0.80;0.70;;;9.70;99.10;;;;;;5040547;28;20228;-81
2021/11/01 21:25:20;;;;;;;0.60;0.50;;;9.20;99.10;;;;;;5038930;28;20259;-81
2021/11/01 21:27:46;;;;;;;0.57;0.52;;;9.20;99.10;;;;;;5038003;28;20202;-81
2021/11/01 21:30:12;;;;;;;0.60;0.50;;;9.20;99.10;;;;;;5039113;28;20655;-81
2021/11/01 21:32:40;;;;;;;0.60;0.50;;;9.20;99.10;;;;;;5037614;28;20189;-81
2021/11/01 21:35:12;;;;;;;0.60;0.50;;;9.10;99.10;;;;;;5037520;28;20458;-81
2021/11/01 21:37:38;;;;;;;0.60;0.60;;;9.10;99.10;;;;;;5036990;28;20281;-81
2021/11/01 21:40:07;;;;;;;0.70;0.60;;;9.10;99.10;;;;;;5037243;28;20205;-81
2021/11/01 21:42:33;;;;;;;2.00;1.25;;;9.20;99.10;;;;;;5037342;28;20189;-81
2021/11/01 21:45:00;;;;;;;0.80;0.70;;;9.10;99.10;;;;;;5037522;28;20181;-80
2021/11/01 21:47:27;;;;;;;2.60;0.95;;;9.10;99.10;;;;;;5035656;28;20551;-80
2021/11/01 21:49:53;;;;;;;4.20;0.63;;;9.10;99.10;;;;;;5032100;28;20189;-79
2021/11/01 21:52:19;;;;;;;2.28;0.80;;;9.20;99.10;;;;;;5032446;28;20182;-80
2021/11/01 21:57:19;;;;;;;1.45;0.65;;;9.10;99.10;;;;;;5033060;28;20225;-80
2021/11/01 22:33:05;;;;;;;2.47;1.40;;;8.90;99.10;;;;;;5035732;28;20695;-79
2021/11/01 22:40:52;;;;;;;1.20;1.15;;;8.90;99.10;;;;;;5041357;28;20181;-80
2021/11/01 22:55:36;;;;;;;0.80;0.70;;;8.60;99.10;;;;;;5041047;28;20204;-80
2021/11/01 22:57:03;;;;;;;1.52;0.68;;;8.70;99.10;;;;;;5040321;28;20174;-80
2021/11/01 22:59:29;;;;;;;1.00;0.93;;;8.80;99.10;;;;;;5043400;28;20212;-79
2021/11/01 23:01:55;;;;;;;0.53;0.50;;;8.80;99.10;;;;;;5043406;28;20630;-80
2021/11/01 23:31:36;;;;;;;1.55;1.10;;;9.00;99.10;;;;;;5018756;28;20216;-79
2021/11/01 23:34:07;;;;;;;1.35;0.82;;;8.90;99.10;;;;;;5033694;28;20216;-79
2021/11/01 23:36:34;;;;;;;2.58;1.80;;;9.00;99.10;;;;;;5037783;28;20188;-79
2021/11/01 23:39:02;;;;;;;1.67;1.05;;;8.90;99.10;;;;;;5036917;28;20212;-79
2021/11/01 23:41:28;;;;;;;1.38;1.10;;;9.00;99.10;;;;;;5038484;28;20166;-79
2021/11/01 23:43:54;;;;;;;0.90;0.80;;;8.90;99.10;;;;;;5038610;28;20185;-80
2021/11/01 23:46:20;;;;;;;2.30;1.33;;;8.80;99.10;;;;;;5038446;28;20777;-79
2021/11/01 23:48:45;;;;;;;2.03;1.90;;;8.80;99.10;;;;;;5037960;28;20440;-79
2021/11/01 23:51:15;;;;;;;1.47;1.40;;;8.80;99.10;;;;;;5038802;28;20177;-79
2021/11/01 23:54:38;;;;;;;2.42;1.60;;;8.80;99.10;;;;;;5038809;28;20535;-79
2021/11/01 23:56:28;;;;;;;2.95;2.13;;;8.80;99.10;;;;;;5035626;28;20209;-79
2021/11/01 23:58:54;;;;;;;2.33;1.83;;;8.80;99.10;;;;;;5038495;28;20243;-79
